createdAt,value
2018-11-02T00:00:41.595Z,87.21
2018-11-02T00:03:10.736Z,87.03
2018-11-02T00:05:39.612Z,87.13
2018-11-02T00:08:09.176Z,86.88
2018-11-02T00:10:38.120Z,86.70
2018-11-02T00:13:07.422Z,86.38
2018-11-02T00:15:36.159Z,86.87
2018-11-02T00:18:04.717Z,86.08
2018-11-02T00:20:33.389Z,86.49
2018-11-02T00:23:02.021Z,85.96
2018-11-02T00:25:30.753Z,86.42
2018-11-02T00:27:59.312Z,85.52
2018-11-02T00:30:27.800Z,86.10
2018-11-02T00:32:56.884Z,85.80
2018-11-02T00:35:25.406Z,85.65
2018-11-02T00:37:54.052Z,85.77
2018-11-02T00:40:22.694Z,85.53
2018-11-02T00:42:51.978Z,86.28
2018-11-02T00:45:20.670Z,86.04
2018-11-02T00:47:49.253Z,85.47
2018-11-02T00:52:53.605Z,85.14
2018-11-02T00:55:22.160Z,85.33
2018-11-02T00:57:51.116Z,85.03
2018-11-02T01:00:26.424Z,85.12
2018-11-02T01:02:55.008Z,84.67
2018-11-02T01:05:23.647Z,84.56
2018-11-02T01:07:52.480Z,84.91
2018-11-02T01:10:27.903Z,84.80
2018-11-02T01:12:56.493Z,84.72
2018-11-02T01:15:25.745Z,84.65
2018-11-02T01:17:54.589Z,84.45
2018-11-02T01:20:23.154Z,84.21
2018-11-02T01:22:55.304Z,84.50
2018-11-02T01:25:23.835Z,84.45
2018-11-02T01:27:52.453Z,84.27
2018-11-02T01:30:21.084Z,83.95
2018-11-02T01:32:49.906Z,83.89
2018-11-02T01:35:18.579Z,84.04
2018-11-02T01:37:47.157Z,84.34
2018-11-02T01:40:15.762Z,83.81
2018-11-02T01:45:18.022Z,83.88
2018-11-02T01:47:46.622Z,83.45
2018-11-02T01:50:15.958Z,83.70
2018-11-02T01:52:44.590Z,83.44
2018-11-02T01:55:13.076Z,83.17
2018-11-02T01:57:41.764Z,83.83
2018-11-02T02:00:10.352Z,83.19
2018-11-02T02:02:38.849Z,83.19
2018-11-02T02:05:07.727Z,82.73
2018-11-02T02:07:36.468Z,82.64
2018-11-02T02:10:05.716Z,82.72
2018-11-02T02:12:34.300Z,82.63
2018-11-02T02:15:02.750Z,82.53
2018-11-02T02:17:31.220Z,82.45
2018-11-02T02:19:59.720Z,81.94
2018-11-02T02:22:28.364Z,82.10
2018-11-02T02:24:56.844Z,82.27
2018-11-02T02:27:26.467Z,81.81
2018-11-02T02:29:55.040Z,81.65
2018-11-02T02:32:23.582Z,81.56
2018-11-02T02:34:52.676Z,81.86
2018-11-02T02:37:21.478Z,81.89
2018-11-02T02:39:50.019Z,82.06
2018-11-02T02:42:18.677Z,82.35
2018-11-02T02:44:47.159Z,82.48
2018-11-02T02:47:15.816Z,82.48
2018-11-02T02:49:44.389Z,82.33
2018-11-02T02:52:12.965Z,82.58
2018-11-02T02:54:41.514Z,82.74
2018-11-02T02:57:10.119Z,82.48
2018-11-02T02:59:38.869Z,82.46
2018-11-02T03:02:07.516Z,82.34
2018-11-02T03:04:36.050Z,82.51
2018-11-02T03:07:04.554Z,82.34
2018-11-02T03:09:33.190Z,82.29
2018-11-02T03:12:01.906Z,82.55
2018-11-02T03:14:30.674Z,82.30
2018-11-02T03:16:59.341Z,82.23
2018-11-02T03:19:28.047Z,82.24
2018-11-02T03:21:56.581Z,82.24
2018-11-02T03:24:25.162Z,82.27
2018-11-02T03:26:53.741Z,81.90
2018-11-02T03:29:22.644Z,81.45
2018-11-02T03:31:51.457Z,81.67
2018-11-02T03:34:19.960Z,81.29
2018-11-02T03:36:48.594Z,81.76
2018-11-02T03:39:17.064Z,81.71
2018-11-02T03:41:45.543Z,80.96
2018-11-02T03:44:14.018Z,80.88
2018-11-02T03:46:42.596Z,81.13
2018-11-02T03:49:11.228Z,81.15
2018-11-02T03:51:39.899Z,81.28
2018-11-02T03:54:08.567Z,80.92
2018-11-02T03:56:37.278Z,81.24
2018-11-02T03:59:06.189Z,80.56
2018-11-02T04:01:35.118Z,80.94
2018-11-02T04:04:03.625Z,80.68
2018-11-02T04:06:32.311Z,81.15
2018-11-02T04:09:01.559Z,80.73
2018-11-02T04:11:30.130Z,80.73
2018-11-02T04:13:58.769Z,80.87
2018-11-02T04:16:27.415Z,80.87
2018-11-02T04:18:56.510Z,80.48
2018-11-02T04:21:25.209Z,80.93
2018-11-02T04:23:53.678Z,80.41
2018-11-02T04:26:22.333Z,81.18
2018-11-02T04:28:50.809Z,80.71
2018-11-02T04:31:19.285Z,80.67
2018-11-02T04:33:47.969Z,80.47
2018-11-02T04:36:16.648Z,80.84
2018-11-02T04:38:45.447Z,80.73
2018-11-02T04:41:14.053Z,80.75
2018-11-02T04:43:43.332Z,80.59
2018-11-02T04:46:12.073Z,80.87
2018-11-02T04:48:40.832Z,80.69
2018-11-02T04:51:09.410Z,81.00
2018-11-02T04:53:37.849Z,80.92
2018-11-02T04:56:06.462Z,81.22
2018-11-02T04:58:34.987Z,81.41
2018-11-02T05:01:04.475Z,81.20
2018-11-02T05:03:33.132Z,81.04
2018-11-02T05:06:01.868Z,81.10
2018-11-02T05:08:30.784Z,80.75
2018-11-02T05:10:59.360Z,81.01
2018-11-02T05:13:28.141Z,81.04
2018-11-02T05:15:56.901Z,81.20
2018-11-02T05:18:26.131Z,80.83
2018-11-02T05:20:54.976Z,80.99
2018-11-02T05:23:23.523Z,81.31
2018-11-02T05:25:52.089Z,81.47
2018-11-02T05:28:20.645Z,81.00
2018-11-02T05:30:49.217Z,81.53
2018-11-02T05:33:17.903Z,81.47
2018-11-02T05:35:47.704Z,81.27
2018-11-02T05:38:18.882Z,81.62
2018-11-02T05:40:47.422Z,81.42
2018-11-02T05:43:16.012Z,81.74
2018-11-02T05:45:44.448Z,82.05
2018-11-02T05:48:12.946Z,81.83
2018-11-02T05:50:41.388Z,82.39
2018-11-02T05:53:10.220Z,82.08
2018-11-02T05:55:38.733Z,82.16
2018-11-02T05:58:07.405Z,82.34
2018-11-02T06:00:37.069Z,81.99
2018-11-02T06:03:05.935Z,82.25
2018-11-02T06:05:34.510Z,82.03
2018-11-02T06:08:03.312Z,82.50
2018-11-02T06:10:31.644Z,82.51
2018-11-02T06:13:00.598Z,82.20
2018-11-02T06:15:29.100Z,82.08
2018-11-02T06:17:57.524Z,82.05
2018-11-02T06:20:25.952Z,82.19
2018-11-02T06:22:54.374Z,82.30
2018-11-02T06:25:23.836Z,82.56
2018-11-02T06:27:52.336Z,81.90
2018-11-02T06:30:21.781Z,82.48
2018-11-02T06:32:50.367Z,82.67
2018-11-02T06:35:19.054Z,82.38
2018-11-02T06:37:47.541Z,82.76
2018-11-02T06:40:16.202Z,82.81
2018-11-02T06:42:44.634Z,82.75
2018-11-02T06:45:13.779Z,82.90
2018-11-02T06:47:42.681Z,82.86
2018-11-02T06:50:11.872Z,82.93
2018-11-02T06:52:40.756Z,82.88
2018-11-02T06:55:09.799Z,83.11
2018-11-02T06:57:49.274Z,83.32
2018-11-02T07:00:32.309Z,83.35
2018-11-02T07:03:22.528Z,83.21
2018-11-02T07:05:57.374Z,83.49
2018-11-02T07:14:11.360Z,83.56
2018-11-02T07:16:54.505Z,83.90
2018-11-02T10:40:17.872Z,67.25
2018-11-02T10:42:55.162Z,65.38
2018-11-02T10:45:30.603Z,64.13
2018-11-02T10:47:59.759Z,65.28
2018-11-02T10:50:28.659Z,65.12
2018-11-02T10:52:57.582Z,64.27
2018-11-02T10:55:26.424Z,64.44
2018-11-02T10:57:55.125Z,64.26
2018-11-02T11:00:29.080Z,64.81
2018-11-02T11:02:57.806Z,64.97
2018-11-02T11:05:26.344Z,64.34
2018-11-02T11:07:56.714Z,63.94
2018-11-02T11:10:25.565Z,63.82
2018-11-02T11:12:55.097Z,64.23
2018-11-02T11:15:23.520Z,64.56
2018-11-02T11:17:52.116Z,63.33
2018-11-02T11:20:20.773Z,63.32
2018-11-02T11:22:50.228Z,63.92
2018-11-02T11:25:18.889Z,62.50
2018-11-02T11:27:47.606Z,60.93
2018-11-02T11:30:17.998Z,61.36
2018-11-02T11:32:47.629Z,59.44
2018-11-02T11:37:53.129Z,57.85
2018-11-02T11:40:22.279Z,56.39
2018-11-02T11:42:50.809Z,56.06
2018-11-02T11:45:19.840Z,56.21
2018-11-02T11:47:49.578Z,57.67
2018-11-02T11:50:20.076Z,58.94
2018-11-02T11:52:49.921Z,60.69
2018-11-02T11:55:18.793Z,60.92
2018-11-02T11:57:47.666Z,61.83
2018-11-02T12:00:18.670Z,62.36
2018-11-02T12:02:48.133Z,62.48
2018-11-02T12:05:18.251Z,61.80
2018-11-02T12:07:47.192Z,60.00
2018-11-02T12:10:19.139Z,58.24
2018-11-02T12:12:47.621Z,57.27
2018-11-02T12:15:18.782Z,55.91
2018-11-02T12:17:47.724Z,55.15
2018-11-02T12:20:25.785Z,55.77
2018-11-02T12:22:59.894Z,55.71
2018-11-02T12:25:28.675Z,56.89
2018-11-02T12:27:57.282Z,57.26
2018-11-02T12:30:25.875Z,57.56
2018-11-02T12:32:54.459Z,57.60
2018-11-02T12:35:24.495Z,57.04
2018-11-02T12:37:53.250Z,55.83
2018-11-02T12:40:23.095Z,54.47
2018-11-02T12:42:52.953Z,52.23
2018-11-02T12:45:22.353Z,51.64
2018-11-02T12:47:50.891Z,50.60
2018-11-02T12:50:22.168Z,50.74
2018-11-02T12:52:51.785Z,48.09
2018-11-02T12:55:20.791Z,46.90
2018-11-02T12:57:52.803Z,46.45
2018-11-02T13:00:22.617Z,47.47
2018-11-02T13:02:52.041Z,46.35
2018-11-02T13:05:20.649Z,46.11
2018-11-02T13:07:50.421Z,45.84
2018-11-02T13:10:20.299Z,45.26
2018-11-02T13:12:48.980Z,42.94
2018-11-02T13:15:19.803Z,42.96
2018-11-02T13:17:52.475Z,43.99
2018-11-02T13:20:21.719Z,42.86
2018-11-02T13:22:50.998Z,43.02
2018-11-02T13:25:20.884Z,43.54
2018-11-02T13:27:50.488Z,42.75
2018-11-02T13:30:19.173Z,43.44
2018-11-02T13:32:48.462Z,43.70
2018-11-02T13:35:18.329Z,42.61
2018-11-02T13:37:47.588Z,43.01
2018-11-02T13:40:17.227Z,42.36
2018-11-02T13:42:45.881Z,41.26
2018-11-02T13:45:17.392Z,41.30
2018-11-02T13:47:46.179Z,40.62
2018-11-02T13:50:14.957Z,41.42
2018-11-02T13:52:44.455Z,42.28
2018-11-02T13:55:13.439Z,42.28
2018-11-02T13:57:43.254Z,41.63
2018-11-02T14:00:13.475Z,40.85
2018-11-02T14:02:43.163Z,39.62
2018-11-02T14:05:13.094Z,40.63
2018-11-02T14:07:42.605Z,41.58
2018-11-02T14:10:12.002Z,42.71
2018-11-02T14:12:41.105Z,43.85
2018-11-02T14:15:15.381Z,44.15
2018-11-02T14:17:44.310Z,44.21
2018-11-02T14:20:16.837Z,43.80
2018-11-02T14:22:45.634Z,44.76
2018-11-02T14:25:15.681Z,44.51
2018-11-02T14:27:44.510Z,45.12
2018-11-02T14:30:14.525Z,45.98
2018-11-02T14:32:43.329Z,45.21
2018-11-02T14:35:11.878Z,46.13
2018-11-02T14:37:40.415Z,46.95
2018-11-02T14:40:10.489Z,47.37
2018-11-02T14:42:39.980Z,48.09
2018-11-02T14:45:10.402Z,48.38
2018-11-02T14:47:38.884Z,48.93
2018-11-02T14:50:09.065Z,49.23
2018-11-02T14:52:38.121Z,49.78
2018-11-02T14:55:07.030Z,49.96
2018-11-02T14:57:36.112Z,50.35
2018-11-02T15:00:06.307Z,50.53
2018-11-02T15:02:34.825Z,50.62
2018-11-02T15:05:03.837Z,51.77
2018-11-02T15:07:33.013Z,51.06
2018-11-02T15:10:01.781Z,51.44
2018-11-02T15:12:30.881Z,50.93
2018-11-02T15:14:59.550Z,51.58
2018-11-02T15:17:28.104Z,51.56
2018-11-02T15:19:57.073Z,52.12
2018-11-02T15:22:25.795Z,52.13
2018-11-02T15:24:54.896Z,53.19
2018-11-02T15:27:23.374Z,53.17
2018-11-02T15:29:52.020Z,53.37
2018-11-02T15:32:21.157Z,53.09
2018-11-02T15:34:50.481Z,54.13
2018-11-02T15:37:19.021Z,54.15
2018-11-02T15:39:48.719Z,54.75
2018-11-02T15:42:17.153Z,54.99
2018-11-02T15:44:45.880Z,54.49
2018-11-02T15:47:14.290Z,55.29
2018-11-02T15:49:42.792Z,55.30
2018-11-02T15:52:11.549Z,55.34
2018-11-02T15:54:40.091Z,55.76
2018-11-02T15:57:08.751Z,55.89
2018-11-02T15:59:37.461Z,55.98
2018-11-02T16:02:06.757Z,56.23
2018-11-02T16:07:09.896Z,56.81
2018-11-02T16:09:38.418Z,57.17
2018-11-02T16:12:06.865Z,57.75
2018-11-02T16:14:35.561Z,58.12
2018-11-02T16:17:04.160Z,58.75
2018-11-02T16:19:32.664Z,58.51
2018-11-02T16:22:07.824Z,58.90
2018-11-02T16:24:36.330Z,59.30
2018-11-02T16:27:04.832Z,59.30
2018-11-02T16:29:33.387Z,59.28
2018-11-02T16:32:01.956Z,59.90
2018-11-02T16:34:30.833Z,59.98
2018-11-02T16:36:59.389Z,60.04
2018-11-02T16:39:28.104Z,60.18
2018-11-02T16:41:56.751Z,60.45
2018-11-02T16:44:29.234Z,60.86
2018-11-02T16:46:57.737Z,61.00
2018-11-02T16:52:00.591Z,61.20
2018-11-02T16:54:29.132Z,61.72
2018-11-02T16:56:57.669Z,62.04
2018-11-02T16:59:26.214Z,62.12
2018-11-02T17:01:54.768Z,62.31
2018-11-02T17:04:23.306Z,62.45
2018-11-02T17:06:52.057Z,62.58
2018-11-02T17:09:20.502Z,62.49
2018-11-02T17:11:49.106Z,62.74
2018-11-02T17:14:17.743Z,62.88
2018-11-02T17:16:46.497Z,63.09
2018-11-02T17:19:14.935Z,63.33
2018-11-02T17:21:43.623Z,63.54
2018-11-02T17:24:11.992Z,63.41
2018-11-02T17:26:40.492Z,63.94
2018-11-02T17:29:09.023Z,63.82
2018-11-02T17:31:37.618Z,63.77
2018-11-02T17:36:41.891Z,64.04
2018-11-02T17:39:11.323Z,64.46
2018-11-02T17:41:40.152Z,64.30
2018-11-02T17:44:08.857Z,64.54
2018-11-02T17:46:37.308Z,64.36
2018-11-02T17:49:06.127Z,64.66
2018-11-02T17:51:35.046Z,64.66
2018-11-02T17:54:04.779Z,64.92
2018-11-02T17:56:33.331Z,65.08
2018-11-02T17:59:01.949Z,65.26
2018-11-02T18:01:30.497Z,65.37
2018-11-02T18:03:58.983Z,65.54
2018-11-02T18:06:28.413Z,65.36
2018-11-02T18:08:58.996Z,65.66
2018-11-02T18:11:27.501Z,65.76
2018-11-02T18:13:56.259Z,65.76
2018-11-02T18:16:24.821Z,65.88
2018-11-02T18:18:53.455Z,65.92
2018-11-02T18:21:22.544Z,66.17
2018-11-02T18:23:51.004Z,65.97
2018-11-02T18:26:19.497Z,66.58
2018-11-02T18:28:48.052Z,66.49
2018-11-02T18:31:16.646Z,66.60
2018-11-02T18:33:45.521Z,66.83
2018-11-02T18:36:14.129Z,66.40
2018-11-02T18:38:42.890Z,66.77
2018-11-02T18:41:11.433Z,66.89
2018-11-02T18:43:39.874Z,66.62
2018-11-02T18:46:08.420Z,67.15
2018-11-02T18:48:37.030Z,67.01
2018-11-02T18:51:06.471Z,67.09
2018-11-02T18:53:35.023Z,67.34
2018-11-02T18:56:03.716Z,67.08
2018-11-02T18:58:32.258Z,67.07
2018-11-02T19:01:00.865Z,67.20
2018-11-02T19:03:29.745Z,67.14
2018-11-02T19:05:58.618Z,67.30
2018-11-02T19:08:27.181Z,67.97
2018-11-02T19:10:55.761Z,67.64
2018-11-02T19:13:24.578Z,68.01
2018-11-02T19:15:53.085Z,67.91
2018-11-02T19:18:21.546Z,68.35
2018-11-02T19:20:50.121Z,68.66
2018-11-02T19:23:18.808Z,68.30
2018-11-02T19:25:47.374Z,68.41
2018-11-02T19:28:16.102Z,68.44
2018-11-02T19:30:44.561Z,68.55
2018-11-02T19:33:13.163Z,68.74
2018-11-02T19:35:41.679Z,68.63
2018-11-02T19:38:10.547Z,68.50
2018-11-02T19:40:39.091Z,69.44
2018-11-02T19:43:07.787Z,68.78
2018-11-02T19:45:36.308Z,69.05
2018-11-02T19:48:06.531Z,69.12
2018-11-02T19:50:39.011Z,69.16
2018-11-02T19:53:08.428Z,69.48
2018-11-02T19:55:37.321Z,69.07
2018-11-02T19:58:06.585Z,69.74
2018-11-02T20:00:35.130Z,69.11
2018-11-02T20:03:03.869Z,69.89
2018-11-02T20:05:32.627Z,69.77
2018-11-02T20:08:01.906Z,69.69
2018-11-02T20:10:30.563Z,69.77
2018-11-02T20:13:05.969Z,69.32
2018-11-02T20:15:34.504Z,70.17
2018-11-02T20:18:03.944Z,69.97
2018-11-02T20:20:32.654Z,70.10
2018-11-02T20:23:01.894Z,70.29
2018-11-02T20:25:31.261Z,69.70
2018-11-02T20:27:59.831Z,70.23
2018-11-02T20:30:28.456Z,70.33
2018-11-02T20:32:57.440Z,70.20
2018-11-02T20:35:26.370Z,70.44
2018-11-02T20:37:55.845Z,70.28
2018-11-02T20:40:24.441Z,70.36
2018-11-02T20:42:52.931Z,70.76
2018-11-02T20:45:21.532Z,70.83
2018-11-02T20:47:52.625Z,70.70
2018-11-02T20:50:21.457Z,71.00
2018-11-02T20:52:50.592Z,70.98
2018-11-02T20:55:19.337Z,71.08
2018-11-02T20:57:48.057Z,71.24
2018-11-02T21:00:18.327Z,71.31
2018-11-02T21:02:47.086Z,71.44
2018-11-02T21:05:16.910Z,71.53
2018-11-02T21:07:46.453Z,71.81
2018-11-02T21:10:16.552Z,71.47
2018-11-02T21:12:45.872Z,71.62
2018-11-02T21:15:24.177Z,71.69
2018-11-02T21:38:02.279Z,72.15
2018-11-02T21:40:31.010Z,72.16
2018-11-02T21:43:01.275Z,72.47
2018-11-02T21:45:29.781Z,72.42
2018-11-02T21:47:58.451Z,72.53
2018-11-02T21:50:27.061Z,72.34
2018-11-02T21:52:55.653Z,72.89
2018-11-02T21:55:24.280Z,72.97
2018-11-02T21:57:52.923Z,72.60
2018-11-02T22:00:22.740Z,72.62
2018-11-02T22:02:51.369Z,72.72
2018-11-02T22:05:20.534Z,72.98
2018-11-02T22:07:50.409Z,72.68
2018-11-02T22:12:53.440Z,72.83
2018-11-02T22:15:22.266Z,72.71
2018-11-02T22:17:50.964Z,73.40
2018-11-02T22:20:19.926Z,73.09
2018-11-02T22:22:48.503Z,73.01
2018-11-02T22:25:17.230Z,73.17
2018-11-02T22:27:46.634Z,73.09
2018-11-02T22:30:16.403Z,72.95
2018-11-02T22:32:44.921Z,73.11
2018-11-02T22:35:14.281Z,73.34
2018-11-02T22:37:42.979Z,73.31
2018-11-02T22:40:12.380Z,73.06
2018-11-02T22:42:41.996Z,72.90
2018-11-02T22:45:11.771Z,73.44
2018-11-02T22:47:40.623Z,73.34
2018-11-02T22:50:09.793Z,73.49
2018-11-02T22:52:38.686Z,73.25
2018-11-02T22:55:08.647Z,73.55
2018-11-02T22:57:37.142Z,73.67
2018-11-02T23:00:12.917Z,73.92
2018-11-02T23:02:41.431Z,73.88
2018-11-02T23:05:10.768Z,73.90
2018-11-02T23:07:39.260Z,73.81
2018-11-02T23:10:08.204Z,73.80
2018-11-02T23:12:36.763Z,74.03
2018-11-02T23:15:06.802Z,73.73
2018-11-02T23:17:35.235Z,73.81
2018-11-02T23:20:03.980Z,73.61
2018-11-02T23:22:32.518Z,74.01
2018-11-02T23:25:00.998Z,73.98
2018-11-02T23:27:30.088Z,73.93
2018-11-02T23:29:58.760Z,73.92
2018-11-02T23:32:27.256Z,73.83
2018-11-02T23:35:02.587Z,74.05
2018-11-02T23:37:31.772Z,74.16
2018-11-02T23:40:00.394Z,73.95
2018-11-02T23:42:29.089Z,73.74
2018-11-02T23:44:57.604Z,74.12
2018-11-02T23:47:26.133Z,74.11
2018-11-02T23:49:54.976Z,74.19
2018-11-02T23:52:24.277Z,74.29
2018-11-02T23:54:53.372Z,73.77
2018-11-02T23:57:28.245Z,74.33
2018-11-02T23:59:56.787Z,73.93
